PWSweather.com
Personal Weather Stations
Station Observations
PICKERING
North Yorkshire, PickeringGB

North YorkshirePickeringGB

Lat: 54.2494, Lon: -0.7725

Elevation: 192

Station Type: Oregon Scientific WMR100

http://www.yorkshirewalker.co.uk/weather/

High Low Average
Temperature 44.6°F7.0°C 32.4°F0.2°C 40.3°F4.6°C
Dew Point 42.8°F6.0°C 28.4°F-2.0°C 37.3°F2.9°C
Winds 16.0 mph 25.7 kmh Calm Calm 5.0 mph NNE8.0 kmh NNE
Wind Gusts 27.5 mph44.3 kmh -- 9.0 mph14.5 kmh
Humidity 90% 82% 87%
Pressure 29.83 in1010.2 mb 29.45 in997.3 mb -
Precipitation 0.41 in10.4 mm - -
Hour Temp Dew Point Humidity Winds Wind Gusts Pressure Precip Precip Rate Daily Precip Total
12:00 AM 43.9°F6.6°C 41.0°F5.0°C 87% 15.2 mph NNE24.5 kmh NNE 19.9 mph32.0 kmh 29.45 in997.3 mb 0.06 in1.5 mm 0.00 in0.0 mm 0.06 in1.5 mm
12:05 AM 43.9°F6.6°C 41.0°F5.0°C 87% 13.4 mph NE21.6 kmh NE 25.3 mph40.7 kmh 29.45 in997.3 mb 0.06 in1.5 mm 0.00 in0.0 mm 0.06 in1.5 mm
12:10 AM 43.9°F6.6°C 41.0°F5.0°C 87% 16.0 mph NE25.7 kmh NE 27.5 mph44.3 kmh 29.47 in998.0 mb 0.06 in1.5 mm 0.00 in0.0 mm 0.06 in1.5 mm
12:15 AM 43.9°F6.6°C 41.0°F5.0°C 87% 15.2 mph NE24.5 kmh NE 27.5 mph44.3 kmh 29.47 in998.0 mb 0.06 in1.5 mm 0.00 in0.0 mm 0.06 in1.5 mm
12:20 AM 43.7°F6.5°C 41.0°F5.0°C 87% 14.7 mph NE23.7 kmh NE 23.3 mph37.5 kmh 29.47 in998.0 mb 0.00 in0.0 mm 0.00 in0.0 mm 0.06 in1.5 mm
12:25 AM 43.7°F6.5°C 41.0°F5.0°C 87% 14.2 mph NNE22.9 kmh NNE 17.7 mph28.5 kmh 29.47 in998.0 mb 0.00 in0.0 mm 0.00 in0.0 mm 0.06 in1.5 mm
12:30 AM 43.5°F6.4°C 41.0°F5.0°C 87% 13.0 mph NNE20.9 kmh NNE 20.1 mph32.3 kmh 29.47 in998.0 mb 0.00 in0.0 mm 0.00 in0.0 mm 0.06 in1.5 mm
12:35 AM 43.5°F6.4°C 41.0°F5.0°C 87% 12.5 mph NNE20.1 kmh NNE 20.1 mph32.3 kmh 29.47 in998.0 mb 0.00 in0.0 mm 0.00 in0.0 mm 0.06 in1.5 mm
12:40 AM 43.3°F6.3°C 41.0°F5.0°C 87% 13.4 mph NNE21.6 kmh NNE 23.3 mph37.5 kmh 29.47 in998.0 mb 0.00 in0.0 mm 0.00 in0.0 mm 0.06 in1.5 mm
12:45 AM 43.3°F6.3°C 41.0°F5.0°C 87% 15.5 mph NNE24.9 kmh NNE 23.3 mph37.5 kmh 29.47 in998.0 mb 0.06 in1.5 mm 0.72 in18.3 mm 0.06 in1.5 mm
12:50 AM 43.3°F6.3°C 41.0°F5.0°C 87% 14.3 mph NE23.0 kmh NE 19.5 mph31.4 kmh 29.47 in998.0 mb 0.06 in1.5 mm 0.00 in0.0 mm 0.06 in1.5 mm
12:55 AM 43.3°F6.3°C 41.0°F5.0°C 87% 13.6 mph NE21.9 kmh NE 22.1 mph35.6 kmh 29.47 in998.0 mb 0.06 in1.5 mm 0.00 in0.0 mm 0.06 in1.5 mm
01:00 AM 43.2°F6.2°C 41.0°F5.0°C 87% 12.7 mph NE20.4 kmh NE 22.1 mph35.6 kmh 29.47 in998.0 mb 0.06 in1.5 mm 0.00 in0.0 mm 0.06 in1.5 mm
01:05 AM 43.2°F6.2°C 41.0°F5.0°C 87% 12.7 mph NE20.4 kmh NE 20.4 mph32.8 kmh 29.47 in998.0 mb 0.06 in1.5 mm 0.00 in0.0 mm 0.06 in1.5 mm
01:10 AM 43.2°F6.2°C 41.0°F5.0°C 87% 13.1 mph NE21.1 kmh NE 20.4 mph32.8 kmh 29.50 in999.0 mb 0.11 in2.8 mm 0.60 in15.2 mm 0.11 in2.8 mm
01:15 AM 43.2°F6.2°C 41.0°F5.0°C 87% 12.6 mph NE20.3 kmh NE 15.9 mph25.6 kmh 29.50 in999.0 mb 0.11 in2.8 mm 0.00 in0.0 mm 0.11 in2.8 mm
01:20 AM 43.2°F6.2°C 41.0°F5.0°C 87% 11.9 mph NNE19.2 kmh NNE 17.0 mph27.4 kmh 29.50 in999.0 mb 0.11 in2.8 mm 0.00 in0.0 mm 0.11 in2.8 mm
01:25 AM 43.2°F6.2°C 41.0°F5.0°C 88% 10.8 mph NNE17.4 kmh NNE 17.0 mph27.4 kmh 29.50 in999.0 mb 0.11 in2.8 mm 0.00 in0.0 mm 0.11 in2.8 mm
01:30 AM 43.2°F6.2°C 41.0°F5.0°C 88% 10.2 mph NNE16.4 kmh NNE 13.0 mph20.9 kmh 29.50 in999.0 mb 0.11 in2.8 mm 0.00 in0.0 mm 0.11 in2.8 mm
01:35 AM 43.2°F6.2°C 41.0°F5.0°C 88% 10.2 mph NE16.4 kmh NE 14.5 mph23.3 kmh 29.50 in999.0 mb 0.11 in2.8 mm 0.00 in0.0 mm 0.11 in2.8 mm
01:40 AM 43.2°F6.2°C 41.0°F5.0°C 88% 10.1 mph NE16.3 kmh NE 14.5 mph23.3 kmh 29.50 in999.0 mb 0.11 in2.8 mm 0.00 in0.0 mm 0.11 in2.8 mm
01:45 AM 43.0°F6.1°C 39.2°F4.0°C 88% 12.3 mph NE19.8 kmh NE 17.7 mph28.5 kmh 29.50 in999.0 mb 0.06 in1.5 mm 0.00 in0.0 mm 0.11 in2.8 mm
01:50 AM 43.0°F6.1°C 39.2°F4.0°C 88% 12.8 mph NE20.6 kmh NE 17.7 mph28.5 kmh 29.50 in999.0 mb 0.06 in1.5 mm 0.00 in0.0 mm 0.11 in2.8 mm
01:55 AM 42.8°F6.0°C 39.2°F4.0°C 88% 11.0 mph NNE17.7 kmh NNE 14.8 mph23.8 kmh 29.50 in999.0 mb 0.06 in1.5 mm 0.00 in0.0 mm 0.11 in2.8 mm
02:00 AM 42.8°F6.0°C 39.2°F4.0°C 88% 9.9 mph NNE15.9 kmh NNE 13.2 mph21.2 kmh 29.50 in999.0 mb 0.06 in1.5 mm 0.00 in0.0 mm 0.11 in2.8 mm
02:05 AM 42.8°F6.0°C 39.2°F4.0°C 88% 9.0 mph NNE14.5 kmh NNE 13.2 mph21.2 kmh 29.50 in999.0 mb 0.11 in2.8 mm 0.60 in15.2 mm 0.17 in4.3 mm
02:10 AM 42.6°F5.9°C 39.2°F4.0°C 88% 9.4 mph NNE15.1 kmh NNE 17.2 mph27.7 kmh 29.50 in999.0 mb 0.06 in1.5 mm 0.00 in0.0 mm 0.17 in4.3 mm
02:15 AM 42.6°F5.9°C 39.2°F4.0°C 88% 9.0 mph NNE14.5 kmh NNE 17.2 mph27.7 kmh 29.50 in999.0 mb 0.06 in1.5 mm 0.00 in0.0 mm 0.17 in4.3 mm
02:20 AM 42.6°F5.9°C 39.2°F4.0°C 88% 7.7 mph NNE12.4 kmh NNE 10.5 mph16.9 kmh 29.50 in999.0 mb 0.06 in1.5 mm 0.00 in0.0 mm 0.17 in4.3 mm
02:25 AM 42.4°F5.8°C 39.2°F4.0°C 88% 8.2 mph NNE13.2 kmh NNE 10.5 mph16.9 kmh 29.50 in999.0 mb 0.06 in1.5 mm 0.00 in0.0 mm 0.17 in4.3 mm
02:30 AM 42.3°F5.7°C 39.2°F4.0°C 88% 8.7 mph NNE14.0 kmh NNE 12.1 mph19.5 kmh 29.50 in999.0 mb 0.06 in1.5 mm 0.00 in0.0 mm 0.17 in4.3 mm
02:35 AM 42.3°F5.7°C 39.2°F4.0°C 88% 8.5 mph NNE13.7 kmh NNE 12.1 mph19.5 kmh 29.50 in999.0 mb 0.06 in1.5 mm 0.00 in0.0 mm 0.17 in4.3 mm
02:40 AM 42.3°F5.7°C 39.2°F4.0°C 88% 9.2 mph NNE14.8 kmh NNE 13.2 mph21.2 kmh 29.53 in1000.0 mb 0.06 in1.5 mm 0.00 in0.0 mm 0.17 in4.3 mm
02:45 AM 42.3°F5.7°C 39.2°F4.0°C 88% 8.7 mph NNE14.0 kmh NNE 13.2 mph21.2 kmh 29.53 in1000.0 mb 0.06 in1.5 mm 0.00 in0.0 mm 0.17 in4.3 mm
02:50 AM 42.3°F5.7°C 39.2°F4.0°C 88% 9.4 mph NNE15.1 kmh NNE 12.5 mph20.1 kmh 29.53 in1000.0 mb 0.06 in1.5 mm 0.00 in0.0 mm 0.17 in4.3 mm
02:55 AM 42.3°F5.7°C 39.2°F4.0°C 88% 10.5 mph NNE16.9 kmh NNE 14.8 mph23.8 kmh 29.53 in1000.0 mb 0.06 in1.5 mm 0.00 in0.0 mm 0.17 in4.3 mm
03:00 AM 42.3°F5.7°C 39.2°F4.0°C 88% 9.6 mph NNE15.4 kmh NNE 17.2 mph27.7 kmh 29.53 in1000.0 mb 0.06 in1.5 mm 0.00 in0.0 mm 0.17 in4.3 mm
03:05 AM 42.3°F5.7°C 39.2°F4.0°C 88% 9.6 mph NNE15.4 kmh NNE 17.2 mph27.7 kmh 29.53 in1000.0 mb 0.00 in0.0 mm 0.00 in0.0 mm 0.17 in4.3 mm
03:10 AM 42.3°F5.7°C 39.2°F4.0°C 88% 10.5 mph NNE16.9 kmh NNE 15.2 mph24.5 kmh 29.53 in1000.0 mb 0.00 in0.0 mm 0.00 in0.0 mm 0.17 in4.3 mm
03:15 AM 42.3°F5.7°C 39.2°F4.0°C 88% 10.6 mph NNE17.1 kmh NNE 15.4 mph24.8 kmh 29.53 in1000.0 mb 0.00 in0.0 mm 0.00 in0.0 mm 0.17 in4.3 mm
03:20 AM 42.4°F5.8°C 39.2°F4.0°C 88% 9.9 mph NNE15.9 kmh NNE 16.1 mph25.9 kmh 29.53 in1000.0 mb 0.00 in0.0 mm 0.00 in0.0 mm 0.17 in4.3 mm
03:25 AM 42.4°F5.8°C 39.2°F4.0°C 88% 8.3 mph NE13.4 kmh NE 16.1 mph25.9 kmh 29.53 in1000.0 mb 0.00 in0.0 mm 0.00 in0.0 mm 0.17 in4.3 mm
03:30 AM 42.4°F5.8°C 41.0°F5.0°C 89% 6.6 mph NNE10.6 kmh NNE 10.7 mph17.2 kmh 29.53 in1000.0 mb 0.00 in0.0 mm 0.00 in0.0 mm 0.17 in4.3 mm
03:35 AM 42.3°F5.7°C 39.2°F4.0°C 89% 6.9 mph NNE11.1 kmh NNE 10.7 mph17.2 kmh 29.53 in1000.0 mb 0.00 in0.0 mm 0.00 in0.0 mm 0.17 in4.3 mm
03:40 AM 42.3°F5.7°C 39.2°F4.0°C 89% 6.6 mph N10.6 kmh N 13.0 mph20.9 kmh 29.53 in1000.0 mb 0.00 in0.0 mm 0.00 in0.0 mm 0.17 in4.3 mm
03:45 AM 42.3°F5.7°C 39.2°F4.0°C 89% 7.0 mph NNE11.3 kmh NNE 13.0 mph20.9 kmh 29.53 in1000.0 mb 0.00 in0.0 mm 0.00 in0.0 mm 0.17 in4.3 mm
03:50 AM 42.1°F5.6°C 39.2°F4.0°C 89% 7.4 mph NNE11.9 kmh NNE 12.3 mph19.8 kmh 29.53 in1000.0 mb 0.00 in0.0 mm 0.00 in0.0 mm 0.17 in4.3 mm
03:55 AM 41.9°F5.5°C 39.2°F4.0°C 89% 8.9 mph N14.3 kmh N 12.3 mph19.8 kmh 29.53 in1000.0 mb 0.00 in0.0 mm 0.00 in0.0 mm 0.17 in4.3 mm
04:00 AM 41.5°F5.3°C 39.2°F4.0°C 88% 9.2 mph NNE14.8 kmh NNE 12.3 mph19.8 kmh 29.53 in1000.0 mb 0.00 in0.0 mm 0.00 in0.0 mm 0.17 in4.3 mm
04:05 AM 41.4°F5.2°C 39.2°F4.0°C 89% 7.8 mph NNE12.6 kmh NNE 12.3 mph19.8 kmh 29.53 in1000.0 mb 0.00 in0.0 mm 0.00 in0.0 mm 0.17 in4.3 mm
04:10 AM 41.4°F5.2°C 39.2°F4.0°C 89% 8.1 mph NNE13.0 kmh NNE 14.1 mph22.7 kmh 29.56 in1001.0 mb 0.00 in0.0 mm 0.00 in0.0 mm 0.17 in4.3 mm
04:15 AM 41.2°F5.1°C 39.2°F4.0°C 89% 8.4 mph NNE13.5 kmh NNE 14.1 mph22.7 kmh 29.56 in1001.0 mb 0.00 in0.0 mm 0.00 in0.0 mm 0.17 in4.3 mm
04:20 AM 41.4°F5.2°C 39.2°F4.0°C 89% 7.2 mph NNE11.6 kmh NNE 10.5 mph16.9 kmh 29.56 in1001.0 mb 0.00 in0.0 mm 0.00 in0.0 mm 0.17 in4.3 mm
04:25 AM 41.5°F5.3°C 39.2°F4.0°C 89% 7.4 mph N11.9 kmh N 10.1 mph16.3 kmh 29.56 in1001.0 mb 0.00 in0.0 mm 0.00 in0.0 mm 0.17 in4.3 mm
04:30 AM 41.5°F5.3°C 39.2°F4.0°C 89% 8.2 mph N13.2 kmh N 10.3 mph16.6 kmh 29.56 in1001.0 mb 0.00 in0.0 mm 0.00 in0.0 mm 0.17 in4.3 mm
04:35 AM 41.5°F5.3°C 39.2°F4.0°C 89% 9.0 mph NNE14.5 kmh NNE 10.3 mph16.6 kmh 29.56 in1001.0 mb 0.00 in0.0 mm 0.00 in0.0 mm 0.17 in4.3 mm
04:40 AM 41.4°F5.2°C 39.2°F4.0°C 89% 9.4 mph NNE15.1 kmh NNE 14.3 mph23.0 kmh 29.56 in1001.0 mb 0.00 in0.0 mm 0.00 in0.0 mm 0.17 in4.3 mm
04:45 AM 41.4°F5.2°C 39.2°F4.0°C 89% 8.8 mph NNE14.2 kmh NNE 14.3 mph23.0 kmh 29.56 in1001.0 mb 0.00 in0.0 mm 0.00 in0.0 mm 0.17 in4.3 mm
04:50 AM 41.5°F5.3°C 39.2°F4.0°C 89% 7.5 mph NNE12.1 kmh NNE 10.5 mph16.9 kmh 29.56 in1001.0 mb 0.00 in0.0 mm 0.00 in0.0 mm 0.17 in4.3 mm
04:55 AM 41.5°F5.3°C 39.2°F4.0°C 89% 6.2 mph NNE10.0 kmh NNE 9.8 mph15.8 kmh 29.56 in1001.0 mb 0.00 in0.0 mm 0.00 in0.0 mm 0.17 in4.3 mm
05:00 AM 41.5°F5.3°C 39.2°F4.0°C 89% 6.8 mph NNE10.9 kmh NNE 12.5 mph20.1 kmh 29.56 in1001.0 mb 0.00 in0.0 mm 0.00 in0.0 mm 0.17 in4.3 mm
05:05 AM 41.7°F5.4°C 39.2°F4.0°C 89% 8.0 mph NNE12.9 kmh NNE 12.5 mph20.1 kmh 29.56 in1001.0 mb 0.00 in0.0 mm 0.00 in0.0 mm 0.17 in4.3 mm
05:10 AM 41.7°F5.4°C 39.2°F4.0°C 89% 6.7 mph N10.8 kmh N 9.8 mph15.8 kmh 29.59 in1002.0 mb 0.00 in0.0 mm 0.00 in0.0 mm 0.17 in4.3 mm
05:15 AM 41.7°F5.4°C 39.2°F4.0°C 89% 5.2 mph NNE8.4 kmh NNE 7.6 mph12.2 kmh 29.59 in1002.0 mb 0.00 in0.0 mm 0.00 in0.0 mm 0.17 in4.3 mm
05:20 AM 41.9°F5.5°C 39.2°F4.0°C 89% 6.0 mph NNE9.7 kmh NNE 9.6 mph15.4 kmh 29.59 in1002.0 mb 0.00 in0.0 mm 0.00 in0.0 mm 0.17 in4.3 mm
05:25 AM 41.9°F5.5°C 39.2°F4.0°C 89% 6.5 mph NNE10.5 kmh NNE 9.6 mph15.4 kmh 29.59 in1002.0 mb 0.00 in0.0 mm 0.00 in0.0 mm 0.17 in4.3 mm
05:30 AM 41.7°F5.4°C 39.2°F4.0°C 89% 5.5 mph NNE8.9 kmh NNE 8.9 mph14.3 kmh 29.59 in1002.0 mb 0.00 in0.0 mm 0.00 in0.0 mm 0.17 in4.3 mm
05:35 AM 41.5°F5.3°C 39.2°F4.0°C 89% 6.4 mph N10.3 kmh N 12.8 mph20.6 kmh 29.59 in1002.0 mb 0.00 in0.0 mm 0.00 in0.0 mm 0.17 in4.3 mm
05:40 AM 41.4°F5.2°C 39.2°F4.0°C 89% 8.0 mph N12.9 kmh N 14.5 mph23.3 kmh 29.59 in1002.0 mb 0.00 in0.0 mm 0.00 in0.0 mm 0.17 in4.3 mm
05:45 AM 41.4°F5.2°C 39.2°F4.0°C 89% 6.6 mph NNE10.6 kmh NNE 14.5 mph23.3 kmh 29.59 in1002.0 mb 0.00 in0.0 mm 0.00 in0.0 mm 0.17 in4.3 mm
05:50 AM 41.2°F5.1°C 39.2°F4.0°C 89% 6.0 mph NNE9.7 kmh NNE 10.3 mph16.6 kmh 29.59 in1002.0 mb 0.00 in0.0 mm 0.00 in0.0 mm 0.17 in4.3 mm
05:55 AM 41.0°F5.0°C 39.2°F4.0°C 89% 6.0 mph N9.7 kmh N 8.5 mph13.7 kmh 29.59 in1002.0 mb 0.00 in0.0 mm 0.00 in0.0 mm 0.17 in4.3 mm
06:00 AM 41.0°F5.0°C 39.2°F4.0°C 89% 5.9 mph NNE9.5 kmh NNE 9.4 mph15.1 kmh 29.59 in1002.0 mb 0.00 in0.0 mm 0.00 in0.0 mm 0.17 in4.3 mm
06:05 AM 41.2°F5.1°C 39.2°F4.0°C 89% 5.4 mph N8.7 kmh N 9.4 mph15.1 kmh 29.59 in1002.0 mb 0.00 in0.0 mm 0.00 in0.0 mm 0.17 in4.3 mm
06:10 AM 41.2°F5.1°C 39.2°F4.0°C 89% 4.8 mph N7.7 kmh N 8.1 mph13.0 kmh 29.59 in1002.0 mb 0.00 in0.0 mm 0.00 in0.0 mm 0.17 in4.3 mm
06:15 AM 41.0°F5.0°C 39.2°F4.0°C 89% 4.9 mph N7.9 kmh N 7.2 mph11.6 kmh 29.59 in1002.0 mb 0.00 in0.0 mm 0.00 in0.0 mm 0.17 in4.3 mm
06:20 AM 40.8°F4.9°C 37.4°F3.0°C 89% 5.1 mph NNE8.2 kmh NNE 6.5 mph10.5 kmh 29.59 in1002.0 mb 0.00 in0.0 mm 0.00 in0.0 mm 0.17 in4.3 mm
06:25 AM 40.8°F4.9°C 37.4°F3.0°C 89% 5.2 mph NNE8.4 kmh NNE 10.5 mph16.9 kmh 29.59 in1002.0 mb 0.00 in0.0 mm 0.00 in0.0 mm 0.17 in4.3 mm
06:30 AM 40.6°F4.8°C 37.4°F3.0°C 89% 5.2 mph N8.4 kmh N 10.5 mph16.9 kmh 29.59 in1002.0 mb 0.00 in0.0 mm 0.00 in0.0 mm 0.17 in4.3 mm
06:35 AM 40.6°F4.8°C 37.4°F3.0°C 89% 4.7 mph N7.6 kmh N 10.5 mph16.9 kmh 29.59 in1002.0 mb 0.00 in0.0 mm 0.00 in0.0 mm 0.17 in4.3 mm
06:40 AM 40.6°F4.8°C 37.4°F3.0°C 89% 5.2 mph N8.4 kmh N 10.5 mph16.9 kmh 29.62 in1003.0 mb 0.00 in0.0 mm 0.00 in0.0 mm 0.17 in4.3 mm
06:45 AM 40.6°F4.8°C 37.4°F3.0°C 89% 5.3 mph N8.5 kmh N 10.5 mph16.9 kmh 29.62 in1003.0 mb 0.00 in0.0 mm 0.00 in0.0 mm 0.17 in4.3 mm
06:50 AM 40.8°F4.9°C 37.4°F3.0°C 89% 4.8 mph N7.7 kmh N 7.8 mph12.6 kmh 29.62 in1003.0 mb 0.00 in0.0 mm 0.00 in0.0 mm 0.17 in4.3 mm
06:55 AM 41.2°F5.1°C 39.2°F4.0°C 89% 5.2 mph N8.4 kmh N 8.1 mph13.0 kmh 29.62 in1003.0 mb 0.00 in0.0 mm 0.00 in0.0 mm 0.17 in4.3 mm
07:00 AM 41.4°F5.2°C 39.2°F4.0°C 89% 5.3 mph N8.5 kmh N 8.1 mph13.0 kmh 29.62 in1003.0 mb 0.00 in0.0 mm 0.00 in0.0 mm 0.17 in4.3 mm
07:05 AM 41.5°F5.3°C 39.2°F4.0°C 89% 5.9 mph N9.5 kmh N 9.8 mph15.8 kmh 29.62 in1003.0 mb 0.00 in0.0 mm 0.00 in0.0 mm 0.17 in4.3 mm
07:10 AM 41.5°F5.3°C 39.2°F4.0°C 89% 6.3 mph NNE10.1 kmh NNE 9.8 mph15.8 kmh 29.62 in1003.0 mb 0.00 in0.0 mm 0.00 in0.0 mm 0.17 in4.3 mm
07:15 AM 41.7°F5.4°C 39.2°F4.0°C 90% 6.1 mph NNE9.8 kmh NNE 8.5 mph13.7 kmh 29.62 in1003.0 mb 0.00 in0.0 mm 0.00 in0.0 mm 0.17 in4.3 mm
07:20 AM 41.9°F5.5°C 39.2°F4.0°C 90% 7.4 mph NNE11.9 kmh NNE 9.8 mph15.8 kmh 29.62 in1003.0 mb 0.00 in0.0 mm 0.00 in0.0 mm 0.17 in4.3 mm
07:25 AM 41.9°F5.5°C 39.2°F4.0°C 89% 6.7 mph N10.8 kmh N 10.3 mph16.6 kmh 29.62 in1003.0 mb 0.00 in0.0 mm 0.00 in0.0 mm 0.17 in4.3 mm
07:30 AM 41.9°F5.5°C 39.2°F4.0°C 89% 5.8 mph NNE9.3 kmh NNE 10.3 mph16.6 kmh 29.62 in1003.0 mb 0.00 in0.0 mm 0.00 in0.0 mm 0.17 in4.3 mm
07:35 AM 41.9°F5.5°C 39.2°F4.0°C 89% 5.9 mph NNE9.5 kmh NNE 7.4 mph11.9 kmh 29.62 in1003.0 mb 0.00 in0.0 mm 0.00 in0.0 mm 0.17 in4.3 mm
07:40 AM 41.9°F5.5°C 39.2°F4.0°C 89% 7.2 mph NNE11.6 kmh NNE 14.5 mph23.3 kmh 29.62 in1003.0 mb 0.00 in0.0 mm 0.00 in0.0 mm 0.17 in4.3 mm
07:45 AM 41.7°F5.4°C 39.2°F4.0°C 89% 5.9 mph NNE9.5 kmh NNE 14.5 mph23.3 kmh 29.62 in1003.0 mb 0.00 in0.0 mm 0.00 in0.0 mm 0.17 in4.3 mm
07:50 AM 41.9°F5.5°C 39.2°F4.0°C 89% 4.6 mph NNE7.4 kmh NNE 8.7 mph14.0 kmh 29.62 in1003.0 mb 0.00 in0.0 mm 0.00 in0.0 mm 0.17 in4.3 mm
07:55 AM 41.9°F5.5°C 39.2°F4.0°C 89% 5.8 mph NNE9.3 kmh NNE 8.7 mph14.0 kmh 29.62 in1003.0 mb 0.00 in0.0 mm 0.00 in0.0 mm 0.17 in4.3 mm
08:00 AM 42.1°F5.6°C 39.2°F4.0°C 89% 5.6 mph NNE9.0 kmh NNE 8.5 mph13.7 kmh 29.62 in1003.0 mb 0.00 in0.0 mm 0.00 in0.0 mm 0.17 in4.3 mm
08:05 AM 42.1°F5.6°C 39.2°F4.0°C 89% 5.6 mph N9.0 kmh N 7.6 mph12.2 kmh 29.62 in1003.0 mb 0.00 in0.0 mm 0.00 in0.0 mm 0.17 in4.3 mm
08:10 AM 42.1°F5.6°C 39.2°F4.0°C 89% 5.7 mph N9.2 kmh N 7.4 mph11.9 kmh 29.62 in1003.0 mb 0.00 in0.0 mm 0.00 in0.0 mm 0.17 in4.3 mm
08:15 AM 42.3°F5.7°C 39.2°F4.0°C 89% 6.2 mph NNE10.0 kmh NNE 8.7 mph14.0 kmh 29.62 in1003.0 mb 0.00 in0.0 mm 0.00 in0.0 mm 0.17 in4.3 mm
08:20 AM 42.4°F5.8°C 41.0°F5.0°C 89% 6.5 mph N10.5 kmh N 8.7 mph14.0 kmh 29.62 in1003.0 mb 0.00 in0.0 mm 0.00 in0.0 mm 0.17 in4.3 mm
08:25 AM 42.8°F6.0°C 41.0°F5.0°C 89% 6.0 mph N9.7 kmh N 7.8 mph12.6 kmh 29.65 in1004.1 mb 0.00 in0.0 mm 0.00 in0.0 mm 0.17 in4.3 mm
08:30 AM 42.8°F6.0°C 41.0°F5.0°C 89% 7.1 mph N11.4 kmh N 13.4 mph21.6 kmh 29.65 in1004.1 mb 0.00 in0.0 mm 0.00 in0.0 mm 0.17 in4.3 mm
08:35 AM 42.8°F6.0°C 41.0°F5.0°C 89% 6.7 mph NNE10.8 kmh NNE 13.4 mph21.6 kmh 29.65 in1004.1 mb 0.00 in0.0 mm 0.00 in0.0 mm 0.17 in4.3 mm
08:40 AM 43.0°F6.1°C 41.0°F5.0°C 89% 5.1 mph NNE8.2 kmh NNE 6.5 mph10.5 kmh 29.65 in1004.1 mb 0.00 in0.0 mm 0.00 in0.0 mm 0.17 in4.3 mm
08:45 AM 43.0°F6.1°C 41.0°F5.0°C 89% 6.1 mph NNE9.8 kmh NNE 10.7 mph17.2 kmh 29.65 in1004.1 mb 0.00 in0.0 mm 0.00 in0.0 mm 0.17 in4.3 mm
08:50 AM 43.0°F6.1°C 41.0°F5.0°C 89% 7.1 mph N11.4 kmh N 10.7 mph17.2 kmh 29.65 in1004.1 mb 0.00 in0.0 mm 0.00 in0.0 mm 0.17 in4.3 mm
08:55 AM 43.0°F6.1°C 41.0°F5.0°C 89% 7.1 mph N11.4 kmh N 10.1 mph16.3 kmh 29.65 in1004.1 mb 0.00 in0.0 mm 0.00 in0.0 mm 0.17 in4.3 mm
09:00 AM 43.0°F6.1°C 39.2°F4.0°C 88% 7.8 mph NNE12.6 kmh NNE 12.5 mph20.1 kmh 29.65 in1004.1 mb 0.00 in0.0 mm 0.00 in0.0 mm 0.17 in4.3 mm
09:05 AM 43.2°F6.2°C 41.0°F5.0°C 88% 7.7 mph NNE12.4 kmh NNE 12.5 mph20.1 kmh 29.65 in1004.1 mb 0.00 in0.0 mm 0.00 in0.0 mm 0.17 in4.3 mm
09:10 AM 43.3°F6.3°C 41.0°F5.0°C 88% 6.9 mph N11.1 kmh N 8.7 mph14.0 kmh 29.65 in1004.1 mb 0.00 in0.0 mm 0.00 in0.0 mm 0.17 in4.3 mm
09:15 AM 43.3°F6.3°C 41.0°F5.0°C 89% 6.9 mph N11.1 kmh N 9.8 mph15.8 kmh 29.65 in1004.1 mb 0.00 in0.0 mm 0.00 in0.0 mm 0.17 in4.3 mm
09:20 AM 43.5°F6.4°C 41.0°F5.0°C 89% 5.8 mph N9.3 kmh N 9.8 mph15.8 kmh 29.65 in1004.1 mb 0.00 in0.0 mm 0.00 in0.0 mm 0.17 in4.3 mm
09:25 AM 44.1°F6.7°C 41.0°F5.0°C 89% 5.0 mph NNE8.0 kmh NNE 7.8 mph12.6 kmh 29.65 in1004.1 mb 0.00 in0.0 mm 0.00 in0.0 mm 0.17 in4.3 mm
09:30 AM 44.1°F6.7°C 41.0°F5.0°C 89% 6.0 mph N9.7 kmh N 9.4 mph15.1 kmh 29.65 in1004.1 mb 0.00 in0.0 mm 0.00 in0.0 mm 0.17 in4.3 mm
09:35 AM 43.9°F6.6°C 41.0°F5.0°C 89% 6.1 mph N9.8 kmh N 9.4 mph15.1 kmh 29.65 in1004.1 mb 0.00 in0.0 mm 0.00 in0.0 mm 0.17 in4.3 mm
09:40 AM 44.1°F6.7°C 41.0°F5.0°C 88% 6.9 mph NNE11.1 kmh NNE 10.7 mph17.2 kmh 29.68 in1005.1 mb 0.00 in0.0 mm 0.00 in0.0 mm 0.17 in4.3 mm
09:45 AM 44.2°F6.8°C 41.0°F5.0°C 88% 7.9 mph NNE12.7 kmh NNE 10.7 mph17.2 kmh 29.68 in1005.1 mb 0.00 in0.0 mm 0.00 in0.0 mm 0.17 in4.3 mm
09:50 AM 44.6°F7.0°C 41.0°F5.0°C 88% 6.9 mph NNE11.1 kmh NNE 11.9 mph19.2 kmh 29.68 in1005.1 mb 0.00 in0.0 mm 0.00 in0.0 mm 0.17 in4.3 mm
09:55 AM 44.6°F7.0°C 41.0°F5.0°C 88% 5.7 mph N9.2 kmh N 11.9 mph19.2 kmh 29.68 in1005.1 mb 0.00 in0.0 mm 0.00 in0.0 mm 0.17 in4.3 mm
10:00 AM 44.6°F7.0°C 41.0°F5.0°C 88% 5.9 mph N9.5 kmh N 8.7 mph14.0 kmh 29.68 in1005.1 mb 0.00 in0.0 mm 0.00 in0.0 mm 0.17 in4.3 mm
10:05 AM 44.4°F6.9°C 41.0°F5.0°C 88% 6.3 mph N10.1 kmh N 8.5 mph13.7 kmh 29.68 in1005.1 mb 0.06 in1.5 mm 0.72 in18.3 mm 0.22 in5.6 mm
10:10 AM 44.4°F6.9°C 41.0°F5.0°C 88% 6.5 mph N10.5 kmh N 8.1 mph13.0 kmh 29.68 in1005.1 mb 0.06 in1.5 mm 0.00 in0.0 mm 0.22 in5.6 mm
10:15 AM 44.1°F6.7°C 41.0°F5.0°C 88% 6.9 mph N11.1 kmh N 13.0 mph20.9 kmh 29.68 in1005.1 mb 0.06 in1.5 mm 0.00 in0.0 mm 0.22 in5.6 mm
10:20 AM 43.7°F6.5°C 41.0°F5.0°C 88% 7.3 mph N11.7 kmh N 13.0 mph20.9 kmh 29.68 in1005.1 mb 0.06 in1.5 mm 0.00 in0.0 mm 0.22 in5.6 mm
10:25 AM 43.5°F6.4°C 41.0°F5.0°C 88% 5.9 mph N9.5 kmh N 13.0 mph20.9 kmh 29.68 in1005.1 mb 0.06 in1.5 mm 0.00 in0.0 mm 0.22 in5.6 mm
10:30 AM 43.5°F6.4°C 41.0°F5.0°C 88% 5.3 mph N8.5 kmh N 8.5 mph13.7 kmh 29.68 in1005.1 mb 0.06 in1.5 mm 0.00 in0.0 mm 0.22 in5.6 mm
10:35 AM 43.5°F6.4°C 41.0°F5.0°C 88% 6.5 mph N10.5 kmh N 11.9 mph19.2 kmh 29.68 in1005.1 mb 0.06 in1.5 mm 0.00 in0.0 mm 0.22 in5.6 mm
10:40 AM 43.5°F6.4°C 41.0°F5.0°C 88% 7.2 mph NNE11.6 kmh NNE 12.1 mph19.5 kmh 29.68 in1005.1 mb 0.06 in1.5 mm 0.00 in0.0 mm 0.22 in5.6 mm
10:45 AM 43.5°F6.4°C 41.0°F5.0°C 88% 6.2 mph NNE10.0 kmh NNE 12.1 mph19.5 kmh 29.68 in1005.1 mb 0.06 in1.5 mm 0.00 in0.0 mm 0.22 in5.6 mm
10:50 AM 43.2°F6.2°C 41.0°F5.0°C 88% 5.5 mph NNE8.9 kmh NNE 8.1 mph13.0 kmh 29.68 in1005.1 mb 0.13 in3.3 mm 0.84 in21.3 mm 0.29 in7.4 mm
10:55 AM 43.2°F6.2°C 41.0°F5.0°C 89% 4.9 mph N7.9 kmh N 6.3 mph10.1 kmh 29.68 in1005.1 mb 0.13 in3.3 mm 0.00 in0.0 mm 0.29 in7.4 mm
11:00 AM 43.0°F6.1°C 41.0°F5.0°C 89% 3.8 mph N6.1 kmh N 5.8 mph9.3 kmh 29.68 in1005.1 mb 0.13 in3.3 mm 0.00 in0.0 mm 0.29 in7.4 mm
11:05 AM 43.2°F6.2°C 41.0°F5.0°C 89% 3.2 mph N5.1 kmh N 3.8 mph6.1 kmh 29.68 in1005.1 mb 0.07 in1.8 mm 0.00 in0.0 mm 0.29 in7.4 mm
11:10 AM 43.3°F6.3°C 41.0°F5.0°C 89% 3.2 mph N5.1 kmh N 5.6 mph9.0 kmh 29.68 in1005.1 mb 0.07 in1.8 mm 0.00 in0.0 mm 0.29 in7.4 mm
11:15 AM 43.3°F6.3°C 41.0°F5.0°C 89% 3.1 mph N5.0 kmh N 5.6 mph9.0 kmh 29.68 in1005.1 mb 0.07 in1.8 mm 0.00 in0.0 mm 0.29 in7.4 mm
11:20 AM 43.5°F6.4°C 41.0°F5.0°C 90% 3.6 mph NNE5.8 kmh NNE 5.8 mph9.3 kmh 29.68 in1005.1 mb 0.07 in1.8 mm 0.00 in0.0 mm 0.29 in7.4 mm
11:25 AM 43.7°F6.5°C 41.0°F5.0°C 90% 4.3 mph NNE6.9 kmh NNE 5.8 mph9.3 kmh 29.68 in1005.1 mb 0.07 in1.8 mm 0.00 in0.0 mm 0.29 in7.4 mm
11:30 AM 43.9°F6.6°C 41.0°F5.0°C 90% 5.8 mph NNE9.3 kmh NNE 9.6 mph15.4 kmh 29.68 in1005.1 mb 0.07 in1.8 mm 0.00 in0.0 mm 0.29 in7.4 mm
11:35 AM 43.7°F6.5°C 41.0°F5.0°C 90% 6.6 mph NNE10.6 kmh NNE 11.0 mph17.7 kmh 29.68 in1005.1 mb 0.13 in3.3 mm 0.72 in18.3 mm 0.35 in8.9 mm
11:40 AM 43.7°F6.5°C 41.0°F5.0°C 90% 6.4 mph NNE10.3 kmh NNE 12.1 mph19.5 kmh 29.71 in1006.1 mb 0.13 in3.3 mm 0.00 in0.0 mm 0.35 in8.9 mm
11:45 AM 43.7°F6.5°C 41.0°F5.0°C 90% 5.8 mph NNE9.3 kmh NNE 12.1 mph19.5 kmh 29.71 in1006.1 mb 0.13 in3.3 mm 0.00 in0.0 mm 0.35 in8.9 mm
11:50 AM 43.5°F6.4°C 41.0°F5.0°C 89% 6.7 mph NNE10.8 kmh NNE 7.8 mph12.6 kmh 29.71 in1006.1 mb 0.06 in1.5 mm 0.00 in0.0 mm 0.35 in8.9 mm
11:55 AM 43.5°F6.4°C 41.0°F5.0°C 90% 6.9 mph NNE11.1 kmh NNE 7.8 mph12.6 kmh 29.71 in1006.1 mb 0.06 in1.5 mm 0.00 in0.0 mm 0.35 in8.9 mm
12:00 PM 43.5°F6.4°C 41.0°F5.0°C 90% 6.2 mph NNE10.0 kmh NNE 7.8 mph12.6 kmh 29.71 in1006.1 mb 0.06 in1.5 mm 0.00 in0.0 mm 0.35 in8.9 mm
12:05 PM 43.3°F6.3°C 41.0°F5.0°C 90% 5.5 mph NNE8.9 kmh NNE 7.8 mph12.6 kmh 29.71 in1006.1 mb 0.06 in1.5 mm 0.00 in0.0 mm 0.35 in8.9 mm
12:10 PM 43.3°F6.3°C 41.0°F5.0°C 89% 7.0 mph NNE11.3 kmh NNE 10.7 mph17.2 kmh 29.71 in1006.1 mb 0.06 in1.5 mm 0.00 in0.0 mm 0.35 in8.9 mm
12:15 PM 43.2°F6.2°C 41.0°F5.0°C 89% 6.9 mph NNE11.1 kmh NNE 10.7 mph17.2 kmh 29.71 in1006.1 mb 0.11 in2.8 mm 0.60 in15.2 mm 0.41 in10.4 mm
12:20 PM 43.2°F6.2°C 41.0°F5.0°C 89% 5.6 mph NNE9.0 kmh NNE 8.1 mph13.0 kmh 29.71 in1006.1 mb 0.11 in2.8 mm 0.00 in0.0 mm 0.41 in10.4 mm
12:25 PM 43.2°F6.2°C 41.0°F5.0°C 89% 5.6 mph NNE9.0 kmh NNE 10.7 mph17.2 kmh 29.71 in1006.1 mb 0.11 in2.8 mm 0.00 in0.0 mm 0.41 in10.4 mm
12:30 PM 43.3°F6.3°C 41.0°F5.0°C 89% 6.6 mph NNE10.6 kmh NNE 10.7 mph17.2 kmh 29.71 in1006.1 mb 0.11 in2.8 mm 0.00 in0.0 mm 0.41 in10.4 mm
12:35 PM 43.5°F6.4°C 41.0°F5.0°C 89% 8.5 mph NNE13.7 kmh NNE 13.6 mph21.9 kmh 29.71 in1006.1 mb 0.06 in1.5 mm 0.00 in0.0 mm 0.41 in10.4 mm
12:40 PM 43.3°F6.3°C 41.0°F5.0°C 89% 8.9 mph NNE14.3 kmh NNE 13.6 mph21.9 kmh 29.71 in1006.1 mb 0.06 in1.5 mm 0.00 in0.0 mm 0.41 in10.4 mm
12:45 PM 43.5°F6.4°C 41.0°F5.0°C 89% 6.4 mph NNE10.3 kmh NNE 10.1 mph16.3 kmh 29.71 in1006.1 mb 0.06 in1.5 mm 0.00 in0.0 mm 0.41 in10.4 mm
12:50 PM 43.7°F6.5°C 41.0°F5.0°C 89% 6.2 mph NNE10.0 kmh NNE 12.8 mph20.6 kmh 29.71 in1006.1 mb 0.06 in1.5 mm 0.00 in0.0 mm 0.41 in10.4 mm
12:55 PM 43.5°F6.4°C 41.0°F5.0°C 89% 7.3 mph NNE11.7 kmh NNE 12.8 mph20.6 kmh 29.71 in1006.1 mb 0.06 in1.5 mm 0.00 in0.0 mm 0.41 in10.4 mm
01:00 PM 43.5°F6.4°C 41.0°F5.0°C 89% 8.0 mph NNE12.9 kmh NNE 12.3 mph19.8 kmh 29.71 in1006.1 mb 0.06 in1.5 mm 0.00 in0.0 mm 0.41 in10.4 mm
01:05 PM 43.5°F6.4°C 41.0°F5.0°C 89% 7.9 mph N12.7 kmh N 12.3 mph19.8 kmh 29.71 in1006.1 mb 0.06 in1.5 mm 0.00 in0.0 mm 0.41 in10.4 mm
01:10 PM 43.5°F6.4°C 41.0°F5.0°C 89% 7.7 mph N12.4 kmh N 11.9 mph19.2 kmh 29.71 in1006.1 mb 0.06 in1.5 mm 0.00 in0.0 mm 0.41 in10.4 mm
01:15 PM 43.5°F6.4°C 41.0°F5.0°C 89% 6.9 mph N11.1 kmh N 8.7 mph14.0 kmh 29.71 in1006.1 mb 0.00 in0.0 mm 0.00 in0.0 mm 0.41 in10.4 mm
01:20 PM 43.5°F6.4°C 41.0°F5.0°C 89% 6.4 mph NNE10.3 kmh NNE 8.7 mph14.0 kmh 29.71 in1006.1 mb 0.00 in0.0 mm 0.00 in0.0 mm 0.41 in10.4 mm
01:25 PM 43.7°F6.5°C 41.0°F5.0°C 89% 6.2 mph NNE10.0 kmh NNE 8.1 mph13.0 kmh 29.74 in1007.1 mb 0.00 in0.0 mm 0.00 in0.0 mm 0.41 in10.4 mm
01:30 PM 44.1°F6.7°C 41.0°F5.0°C 89% 5.5 mph NNE8.9 kmh NNE 9.6 mph15.4 kmh 29.74 in1007.1 mb 0.00 in0.0 mm 0.00 in0.0 mm 0.41 in10.4 mm
01:35 PM 44.4°F6.9°C 42.8°F6.0°C 89% 5.9 mph NNE9.5 kmh NNE 9.6 mph15.4 kmh 29.74 in1007.1 mb 0.00 in0.0 mm 0.00 in0.0 mm 0.41 in10.4 mm
01:40 PM 44.4°F6.9°C 41.0°F5.0°C 88% 7.3 mph NNE11.7 kmh NNE 11.0 mph17.7 kmh 29.74 in1007.1 mb 0.00 in0.0 mm 0.00 in0.0 mm 0.41 in10.4 mm
01:45 PM 44.4°F6.9°C 41.0°F5.0°C 88% 7.5 mph NNE12.1 kmh NNE 11.0 mph17.7 kmh 29.74 in1007.1 mb 0.00 in0.0 mm 0.00 in0.0 mm 0.41 in10.4 mm
01:50 PM 44.1°F6.7°C 41.0°F5.0°C 88% 5.5 mph N8.9 kmh N 10.7 mph17.2 kmh 29.74 in1007.1 mb 0.00 in0.0 mm 0.00 in0.0 mm 0.41 in10.4 mm
01:55 PM 43.9°F6.6°C 41.0°F5.0°C 88% 5.0 mph NNE8.0 kmh NNE 8.7 mph14.0 kmh 29.74 in1007.1 mb 0.00 in0.0 mm 0.00 in0.0 mm 0.41 in10.4 mm
02:00 PM 43.9°F6.6°C 41.0°F5.0°C 88% 7.3 mph NNE11.7 kmh NNE 13.0 mph20.9 kmh 29.74 in1007.1 mb 0.00 in0.0 mm 0.00 in0.0 mm 0.41 in10.4 mm
02:05 PM 43.7°F6.5°C 41.0°F5.0°C 87% 7.8 mph NNE12.6 kmh NNE 13.0 mph20.9 kmh 29.74 in1007.1 mb 0.00 in0.0 mm 0.00 in0.0 mm 0.41 in10.4 mm
02:10 PM 44.1°F6.7°C 41.0°F5.0°C 87% 6.4 mph N10.3 kmh N 13.0 mph20.9 kmh 29.74 in1007.1 mb 0.00 in0.0 mm 0.00 in0.0 mm 0.41 in10.4 mm
02:15 PM 44.2°F6.8°C 41.0°F5.0°C 87% 5.4 mph N8.7 kmh N 9.6 mph15.4 kmh 29.74 in1007.1 mb 0.00 in0.0 mm 0.00 in0.0 mm 0.41 in10.4 mm
02:20 PM 44.1°F6.7°C 41.0°F5.0°C 87% 5.7 mph NNE9.2 kmh NNE 9.6 mph15.4 kmh 29.74 in1007.1 mb 0.00 in0.0 mm 0.00 in0.0 mm 0.41 in10.4 mm
02:25 PM 44.1°F6.7°C 41.0°F5.0°C 87% 6.1 mph NNE9.8 kmh NNE 9.6 mph15.4 kmh 29.74 in1007.1 mb 0.00 in0.0 mm 0.00 in0.0 mm 0.41 in10.4 mm
02:30 PM 43.9°F6.6°C 41.0°F5.0°C 87% 5.5 mph NNE8.9 kmh NNE 10.7 mph17.2 kmh 29.74 in1007.1 mb 0.00 in0.0 mm 0.00 in0.0 mm 0.41 in10.4 mm
02:35 PM 43.5°F6.4°C 39.2°F4.0°C 86% 5.3 mph NNE8.5 kmh NNE 10.7 mph17.2 kmh 29.74 in1007.1 mb 0.00 in0.0 mm 0.00 in0.0 mm 0.41 in10.4 mm
02:40 PM 43.5°F6.4°C 39.2°F4.0°C 86% 5.1 mph NNE8.2 kmh NNE 7.8 mph12.6 kmh 29.74 in1007.1 mb 0.00 in0.0 mm 0.00 in0.0 mm 0.41 in10.4 mm
02:45 PM 43.5°F6.4°C 39.2°F4.0°C 86% 6.4 mph NNE10.3 kmh NNE 11.0 mph17.7 kmh 29.74 in1007.1 mb 0.00 in0.0 mm 0.00 in0.0 mm 0.41 in10.4 mm
02:50 PM 43.3°F6.3°C 39.2°F4.0°C 85% 7.8 mph NNE12.6 kmh NNE 11.9 mph19.2 kmh 29.74 in1007.1 mb 0.00 in0.0 mm 0.00 in0.0 mm 0.41 in10.4 mm
02:55 PM 43.2°F6.2°C 39.2°F4.0°C 85% 7.3 mph NNE11.7 kmh NNE 11.9 mph19.2 kmh 29.74 in1007.1 mb 0.00 in0.0 mm 0.00 in0.0 mm 0.41 in10.4 mm
03:00 PM 43.0°F6.1°C 39.2°F4.0°C 85% 6.5 mph NNE10.5 kmh NNE 9.8 mph15.8 kmh 29.74 in1007.1 mb 0.00 in0.0 mm 0.00 in0.0 mm 0.41 in10.4 mm
03:05 PM 43.2°F6.2°C 39.2°F4.0°C 85% 5.3 mph NNE8.5 kmh NNE 9.6 mph15.4 kmh 29.74 in1007.1 mb 0.00 in0.0 mm 0.00 in0.0 mm 0.41 in10.4 mm
03:10 PM 43.2°F6.2°C 39.2°F4.0°C 84% 7.3 mph NNE11.7 kmh NNE 10.7 mph17.2 kmh 29.74 in1007.1 mb 0.00 in0.0 mm 0.00 in0.0 mm 0.41 in10.4 mm
03:15 PM 43.2°F6.2°C 39.2°F4.0°C 84% 7.5 mph NNE12.1 kmh NNE 10.7 mph17.2 kmh 29.74 in1007.1 mb 0.00 in0.0 mm 0.00 in0.0 mm 0.41 in10.4 mm
03:20 PM 43.2°F6.2°C 39.2°F4.0°C 84% 6.7 mph NNE10.8 kmh NNE 13.0 mph20.9 kmh 29.74 in1007.1 mb 0.00 in0.0 mm 0.00 in0.0 mm 0.41 in10.4 mm
03:25 PM 42.8°F6.0°C 39.2°F4.0°C 84% 6.6 mph NNE10.6 kmh NNE 13.0 mph20.9 kmh 29.74 in1007.1 mb 0.00 in0.0 mm 0.00 in0.0 mm 0.41 in10.4 mm
03:30 PM 42.8°F6.0°C 39.2°F4.0°C 84% 7.0 mph NNE11.3 kmh NNE 10.5 mph16.9 kmh 29.74 in1007.1 mb 0.00 in0.0 mm 0.00 in0.0 mm 0.41 in10.4 mm
03:35 PM 42.4°F5.8°C 37.4°F3.0°C 83% 6.4 mph NNE10.3 kmh NNE 10.5 mph16.9 kmh 29.74 in1007.1 mb 0.00 in0.0 mm 0.00 in0.0 mm 0.41 in10.4 mm
03:40 PM 42.3°F5.7°C 37.4°F3.0°C 83% 4.9 mph NNE7.9 kmh NNE 8.5 mph13.7 kmh 29.77 in1008.1 mb 0.00 in0.0 mm 0.00 in0.0 mm 0.41 in10.4 mm
03:45 PM 42.3°F5.7°C 37.4°F3.0°C 83% 5.6 mph NNE9.0 kmh NNE 10.7 mph17.2 kmh 29.77 in1008.1 mb 0.00 in0.0 mm 0.00 in0.0 mm 0.41 in10.4 mm
03:50 PM 42.1°F5.6°C 37.4°F3.0°C 83% 5.3 mph NNE8.5 kmh NNE 10.7 mph17.2 kmh 29.77 in1008.1 mb 0.00 in0.0 mm 0.00 in0.0 mm 0.41 in10.4 mm
03:55 PM 41.5°F5.3°C 37.4°F3.0°C 82% 4.9 mph NNE7.9 kmh NNE 8.5 mph13.7 kmh 29.77 in1008.1 mb 0.00 in0.0 mm 0.00 in0.0 mm 0.41 in10.4 mm
04:00 PM 41.5°F5.3°C 37.4°F3.0°C 82% 4.1 mph NNE6.6 kmh NNE 8.5 mph13.7 kmh 29.77 in1008.1 mb 0.00 in0.0 mm 0.00 in0.0 mm 0.41 in10.4 mm
04:05 PM 41.4°F5.2°C 37.4°F3.0°C 82% 3.2 mph N5.1 kmh N 6.0 mph9.7 kmh 29.77 in1008.1 mb 0.00 in0.0 mm 0.00 in0.0 mm 0.41 in10.4 mm
04:10 PM 41.0°F5.0°C 37.4°F3.0°C 82% 2.8 mph N4.5 kmh N 3.8 mph6.1 kmh 29.77 in1008.1 mb 0.00 in0.0 mm 0.00 in0.0 mm 0.41 in10.4 mm
04:15 PM 40.8°F4.9°C 35.6°F2.0°C 82% 2.5 mph N4.0 kmh N 3.4 mph5.5 kmh 29.77 in1008.1 mb 0.00 in0.0 mm 0.00 in0.0 mm 0.41 in10.4 mm
04:20 PM 40.6°F4.8°C 35.6°F2.0°C 83% 2.1 mph N3.4 kmh N 3.4 mph5.5 kmh 29.77 in1008.1 mb 0.00 in0.0 mm 0.00 in0.0 mm 0.41 in10.4 mm
04:25 PM 40.5°F4.7°C 35.6°F2.0°C 83% 2.3 mph NNE3.7 kmh NNE 4.0 mph6.4 kmh 29.77 in1008.1 mb 0.00 in0.0 mm 0.00 in0.0 mm 0.41 in10.4 mm
04:30 PM 40.3°F4.6°C 35.6°F2.0°C 83% 2.7 mph NNE4.3 kmh NNE 4.3 mph6.9 kmh 29.77 in1008.1 mb 0.00 in0.0 mm 0.00 in0.0 mm 0.41 in10.4 mm
04:35 PM 40.3°F4.6°C 35.6°F2.0°C 83% 2.9 mph NNE4.7 kmh NNE 4.3 mph6.9 kmh 29.77 in1008.1 mb 0.00 in0.0 mm 0.00 in0.0 mm 0.41 in10.4 mm
04:40 PM 39.7°F4.3°C 35.6°F2.0°C 83% 2.9 mph N4.7 kmh N 4.7 mph7.6 kmh 29.77 in1008.1 mb 0.00 in0.0 mm 0.00 in0.0 mm 0.41 in10.4 mm
04:45 PM 39.6°F4.2°C 35.6°F2.0°C 83% 2.5 mph N4.0 kmh N 4.7 mph7.6 kmh 29.77 in1008.1 mb 0.00 in0.0 mm 0.00 in0.0 mm 0.41 in10.4 mm
04:50 PM 39.2°F4.0°C 33.8°F1.0°C 83% 1.9 mph N3.1 kmh N 3.1 mph5.0 kmh 29.77 in1008.1 mb 0.00 in0.0 mm 0.00 in0.0 mm 0.41 in10.4 mm
04:55 PM 39.0°F3.9°C 33.8°F1.0°C 83% 1.6 mph N2.6 kmh N 3.6 mph5.8 kmh 29.77 in1008.1 mb 0.00 in0.0 mm 0.00 in0.0 mm 0.41 in10.4 mm
05:00 PM 39.0°F3.9°C 33.8°F1.0°C 83% 1.6 mph N2.6 kmh N 3.6 mph5.8 kmh 29.77 in1008.1 mb 0.00 in0.0 mm 0.00 in0.0 mm 0.41 in10.4 mm
05:05 PM 38.8°F3.8°C 33.8°F1.0°C 83% 2.0 mph N3.2 kmh N 4.9 mph7.9 kmh 29.77 in1008.1 mb 0.00 in0.0 mm 0.00 in0.0 mm 0.41 in10.4 mm
05:10 PM 38.7°F3.7°C 33.8°F1.0°C 83% 1.8 mph N2.9 kmh N 4.9 mph7.9 kmh 29.80 in1009.1 mb 0.00 in0.0 mm 0.00 in0.0 mm 0.41 in10.4 mm
05:15 PM 38.5°F3.6°C 33.8°F1.0°C 83% 2.2 mph N3.5 kmh N 5.6 mph9.0 kmh 29.80 in1009.1 mb 0.00 in0.0 mm 0.00 in0.0 mm 0.41 in10.4 mm
05:20 PM 38.1°F3.4°C 33.8°F1.0°C 83% 2.5 mph N4.0 kmh N 5.6 mph9.0 kmh 29.80 in1009.1 mb 0.00 in0.0 mm 0.00 in0.0 mm 0.41 in10.4 mm
05:25 PM 38.3°F3.5°C 33.8°F1.0°C 83% 2.0 mph N3.2 kmh N 3.1 mph5.0 kmh 29.80 in1009.1 mb 0.00 in0.0 mm 0.00 in0.0 mm 0.41 in10.4 mm
05:30 PM 38.1°F3.4°C 33.8°F1.0°C 84% 2.3 mph N3.7 kmh N 3.1 mph5.0 kmh 29.80 in1009.1 mb 0.00 in0.0 mm 0.00 in0.0 mm 0.41 in10.4 mm
05:35 PM 37.8°F3.2°C 33.8°F1.0°C 84% 2.2 mph N3.5 kmh N 3.1 mph5.0 kmh 29.80 in1009.1 mb 0.00 in0.0 mm 0.00 in0.0 mm 0.41 in10.4 mm
05:40 PM 37.6°F3.1°C 33.8°F1.0°C 84% 2.1 mph N3.4 kmh N 3.4 mph5.5 kmh 29.80 in1009.1 mb 0.00 in0.0 mm 0.00 in0.0 mm 0.41 in10.4 mm
05:45 PM 37.4°F3.0°C 33.8°F1.0°C 83% 2.2 mph N3.5 kmh N 4.0 mph6.4 kmh 29.80 in1009.1 mb 0.00 in0.0 mm 0.00 in0.0 mm 0.41 in10.4 mm
05:50 PM 37.2°F2.9°C 33.8°F1.0°C 84% 2.0 mph N3.2 kmh N 4.0 mph6.4 kmh 29.80 in1009.1 mb 0.00 in0.0 mm 0.00 in0.0 mm 0.41 in10.4 mm
05:55 PM 37.0°F2.8°C 33.8°F1.0°C 84% 2.0 mph N3.2 kmh N 4.0 mph6.4 kmh 29.80 in1009.1 mb 0.00 in0.0 mm 0.00 in0.0 mm 0.41 in10.4 mm
06:00 PM 37.0°F2.8°C 33.8°F1.0°C 84% 1.4 mph N2.3 kmh N 3.1 mph5.0 kmh 29.80 in1009.1 mb 0.00 in0.0 mm 0.00 in0.0 mm 0.41 in10.4 mm
06:05 PM 36.9°F2.7°C 33.8°F1.0°C 84% 1.2 mph N1.9 kmh N 2.7 mph4.3 kmh 29.80 in1009.1 mb 0.00 in0.0 mm 0.00 in0.0 mm 0.41 in10.4 mm
06:10 PM 37.0°F2.8°C 33.8°F1.0°C 84% 0.9 mph N1.4 kmh N 2.7 mph4.3 kmh 29.80 in1009.1 mb 0.00 in0.0 mm 0.00 in0.0 mm 0.41 in10.4 mm
06:15 PM 37.2°F2.9°C 33.8°F1.0°C 84% 0.3 mph N0.5 kmh N 1.6 mph2.6 kmh 29.80 in1009.1 mb 0.00 in0.0 mm 0.00 in0.0 mm 0.41 in10.4 mm
06:20 PM 37.2°F2.9°C 33.8°F1.0°C 84% Calm Calm -- 29.80 in1009.1 mb 0.00 in0.0 mm 0.00 in0.0 mm 0.41 in10.4 mm
06:25 PM 37.4°F3.0°C 33.8°F1.0°C 84% Calm Calm -- 29.80 in1009.1 mb 0.00 in0.0 mm 0.00 in0.0 mm 0.41 in10.4 mm
06:30 PM 37.4°F3.0°C 33.8°F1.0°C 84% 0.4 mph N0.6 kmh N 2.0 mph3.2 kmh 29.80 in1009.1 mb 0.00 in0.0 mm 0.00 in0.0 mm 0.41 in10.4 mm
06:35 PM 36.9°F2.7°C 33.8°F1.0°C 84% 1.4 mph N2.3 kmh N 2.5 mph4.0 kmh 29.80 in1009.1 mb 0.00 in0.0 mm 0.00 in0.0 mm 0.41 in10.4 mm
06:40 PM 36.7°F2.6°C 33.8°F1.0°C 84% 1.5 mph N2.4 kmh N 2.5 mph4.0 kmh 29.80 in1009.1 mb 0.00 in0.0 mm 0.00 in0.0 mm 0.41 in10.4 mm
06:45 PM 36.7°F2.6°C 33.8°F1.0°C 85% 1.3 mph N2.1 kmh N 2.2 mph3.5 kmh 29.80 in1009.1 mb 0.00 in0.0 mm 0.00 in0.0 mm 0.41 in10.4 mm
06:50 PM 36.3°F2.4°C 33.8°F1.0°C 85% 0.8 mph N1.3 kmh N 2.2 mph3.5 kmh 29.80 in1009.1 mb 0.00 in0.0 mm 0.00 in0.0 mm 0.41 in10.4 mm
06:55 PM 36.1°F2.3°C 33.8°F1.0°C 85% 0.1 mph N0.2 kmh N 1.6 mph2.6 kmh 29.80 in1009.1 mb 0.00 in0.0 mm 0.00 in0.0 mm 0.41 in10.4 mm
07:00 PM 35.8°F2.1°C 32.0°F0.0°C 85% Calm Calm -- 29.80 in1009.1 mb 0.00 in0.0 mm 0.00 in0.0 mm 0.41 in10.4 mm
07:05 PM 36.0°F2.2°C 32.0°F0.0°C 85% 1.0 mph N1.6 kmh N 2.5 mph4.0 kmh 29.80 in1009.1 mb 0.00 in0.0 mm 0.00 in0.0 mm 0.41 in10.4 mm
07:10 PM 35.8°F2.1°C 32.0°F0.0°C 85% 2.0 mph N3.2 kmh N 2.5 mph4.0 kmh 29.83 in1010.2 mb 0.00 in0.0 mm 0.00 in0.0 mm 0.41 in10.4 mm
07:15 PM 35.8°F2.1°C 32.0°F0.0°C 85% 1.9 mph N3.1 kmh N 2.7 mph4.3 kmh 29.83 in1010.2 mb 0.00 in0.0 mm 0.00 in0.0 mm 0.41 in10.4 mm
07:20 PM 35.6°F2.0°C 32.0°F0.0°C 85% 1.9 mph N3.1 kmh N 3.1 mph5.0 kmh 29.83 in1010.2 mb 0.00 in0.0 mm 0.00 in0.0 mm 0.41 in10.4 mm
07:25 PM 35.2°F1.8°C 32.0°F0.0°C 85% 1.5 mph N2.4 kmh N 3.1 mph5.0 kmh 29.83 in1010.2 mb 0.00 in0.0 mm 0.00 in0.0 mm 0.41 in10.4 mm
07:30 PM 35.1°F1.7°C 32.0°F0.0°C 85% 1.5 mph N2.4 kmh N 2.5 mph4.0 kmh 29.83 in1010.2 mb 0.00 in0.0 mm 0.00 in0.0 mm 0.41 in10.4 mm
07:35 PM 35.1°F1.7°C 32.0°F0.0°C 85% 1.7 mph N2.7 kmh N 2.9 mph4.7 kmh 29.83 in1010.2 mb 0.00 in0.0 mm 0.00 in0.0 mm 0.41 in10.4 mm
07:40 PM 34.9°F1.6°C 32.0°F0.0°C 85% 1.6 mph N2.6 kmh N 2.9 mph4.7 kmh 29.83 in1010.2 mb 0.00 in0.0 mm 0.00 in0.0 mm 0.41 in10.4 mm
07:45 PM 34.7°F1.5°C 32.0°F0.0°C 85% 1.6 mph N2.6 kmh N 2.7 mph4.3 kmh 29.83 in1010.2 mb 0.00 in0.0 mm 0.00 in0.0 mm 0.41 in10.4 mm
07:50 PM 34.5°F1.4°C 30.2°F-1.0°C 85% 2.0 mph N3.2 kmh N 2.9 mph4.7 kmh 29.83 in1010.2 mb 0.00 in0.0 mm 0.00 in0.0 mm 0.41 in10.4 mm
07:55 PM 34.3°F1.3°C 30.2°F-1.0°C 85% 2.3 mph N3.7 kmh N 3.6 mph5.8 kmh 29.83 in1010.2 mb 0.00 in0.0 mm 0.00 in0.0 mm 0.41 in10.4 mm
08:00 PM 34.5°F1.4°C 30.2°F-1.0°C 85% 2.8 mph N4.5 kmh N 3.8 mph6.1 kmh 29.83 in1010.2 mb 0.00 in0.0 mm 0.00 in0.0 mm 0.41 in10.4 mm
08:05 PM 34.3°F1.3°C 30.2°F-1.0°C 85% 2.4 mph N3.9 kmh N 3.8 mph6.1 kmh 29.83 in1010.2 mb 0.00 in0.0 mm 0.00 in0.0 mm 0.41 in10.4 mm
08:10 PM 34.2°F1.2°C 30.2°F-1.0°C 85% 0.8 mph N1.3 kmh N 2.2 mph3.5 kmh 29.80 in1009.1 mb 0.00 in0.0 mm 0.00 in0.0 mm 0.41 in10.4 mm
08:15 PM 33.8°F1.0°C 30.2°F-1.0°C 85% 0.1 mph N0.2 kmh N 2.2 mph3.5 kmh 29.80 in1009.1 mb 0.00 in0.0 mm 0.00 in0.0 mm 0.41 in10.4 mm
08:20 PM 33.8°F1.0°C 30.2°F-1.0°C 85% Calm Calm -- 29.80 in1009.1 mb 0.00 in0.0 mm 0.00 in0.0 mm 0.41 in10.4 mm
08:25 PM 33.8°F1.0°C 30.2°F-1.0°C 85% Calm Calm -- 29.83 in1010.2 mb 0.00 in0.0 mm 0.00 in0.0 mm 0.41 in10.4 mm
08:30 PM 33.3°F0.7°C 30.2°F-1.0°C 85% Calm Calm -- 29.83 in1010.2 mb 0.00 in0.0 mm 0.00 in0.0 mm 0.41 in10.4 mm
08:35 PM 33.3°F0.7°C 30.2°F-1.0°C 85% 0.6 mph N1.0 kmh N 2.7 mph4.3 kmh 29.83 in1010.2 mb 0.00 in0.0 mm 0.00 in0.0 mm 0.41 in10.4 mm
08:40 PM 33.3°F0.7°C 30.2°F-1.0°C 85% 1.3 mph N2.1 kmh N 2.7 mph4.3 kmh 29.83 in1010.2 mb 0.00 in0.0 mm 0.00 in0.0 mm 0.41 in10.4 mm
08:45 PM 33.4°F0.8°C 30.2°F-1.0°C 85% 1.1 mph N1.8 kmh N 2.5 mph4.0 kmh 29.83 in1010.2 mb 0.00 in0.0 mm 0.00 in0.0 mm 0.41 in10.4 mm
08:50 PM 33.6°F0.9°C 30.2°F-1.0°C 85% 0.4 mph NNE0.6 kmh NNE 2.0 mph3.2 kmh 29.83 in1010.2 mb 0.00 in0.0 mm 0.00 in0.0 mm 0.41 in10.4 mm
08:55 PM 33.3°F0.7°C 30.2°F-1.0°C 85% Calm Calm -- 29.83 in1010.2 mb 0.00 in0.0 mm 0.00 in0.0 mm 0.41 in10.4 mm
09:00 PM 33.3°F0.7°C 30.2°F-1.0°C 85% Calm Calm -- 29.83 in1010.2 mb 0.00 in0.0 mm 0.00 in0.0 mm 0.41 in10.4 mm
09:05 PM 33.1°F0.6°C 30.2°F-1.0°C 85% 0.6 mph N1.0 kmh N 2.2 mph3.5 kmh 29.83 in1010.2 mb 0.00 in0.0 mm 0.00 in0.0 mm 0.41 in10.4 mm
09:10 PM 32.9°F0.5°C 30.2°F-1.0°C 85% 0.8 mph N1.3 kmh N 2.2 mph3.5 kmh 29.83 in1010.2 mb 0.00 in0.0 mm 0.00 in0.0 mm 0.41 in10.4 mm
09:15 PM 33.1°F0.6°C 30.2°F-1.0°C 85% 0.8 mph NNE1.3 kmh NNE 3.1 mph5.0 kmh 29.83 in1010.2 mb 0.00 in0.0 mm 0.00 in0.0 mm 0.41 in10.4 mm
09:20 PM 33.4°F0.8°C 30.2°F-1.0°C 85% 2.1 mph NNE3.4 kmh NNE 3.1 mph5.0 kmh 29.83 in1010.2 mb 0.00 in0.0 mm 0.00 in0.0 mm 0.41 in10.4 mm
09:25 PM 33.4°F0.8°C 30.2°F-1.0°C 85% 2.9 mph NNE4.7 kmh NNE 3.4 mph5.5 kmh 29.80 in1009.1 mb 0.00 in0.0 mm 0.00 in0.0 mm 0.41 in10.4 mm
09:30 PM 33.3°F0.7°C 30.2°F-1.0°C 85% 2.7 mph NNE4.3 kmh NNE 3.4 mph5.5 kmh 29.80 in1009.1 mb 0.00 in0.0 mm 0.00 in0.0 mm 0.41 in10.4 mm
09:35 PM 33.3°F0.7°C 30.2°F-1.0°C 85% 2.7 mph NE4.3 kmh NE 3.1 mph5.0 kmh 29.80 in1009.1 mb 0.00 in0.0 mm 0.00 in0.0 mm 0.41 in10.4 mm
09:40 PM 32.9°F0.5°C 30.2°F-1.0°C 85% 2.5 mph NE4.0 kmh NE 3.1 mph5.0 kmh 29.80 in1009.1 mb 0.00 in0.0 mm 0.00 in0.0 mm 0.41 in10.4 mm
09:45 PM 32.9°F0.5°C 30.2°F-1.0°C 85% 1.9 mph NE3.1 kmh NE 2.9 mph4.7 kmh 29.80 in1009.1 mb 0.00 in0.0 mm 0.00 in0.0 mm 0.41 in10.4 mm
09:50 PM 32.9°F0.5°C 30.2°F-1.0°C 85% 0.9 mph NE1.4 kmh NE 2.7 mph4.3 kmh 29.80 in1009.1 mb 0.00 in0.0 mm 0.00 in0.0 mm 0.41 in10.4 mm
09:55 PM 32.5°F0.3°C 30.2°F-1.0°C 85% 0.3 mph NE0.5 kmh NE 2.5 mph4.0 kmh 29.80 in1009.1 mb 0.00 in0.0 mm 0.00 in0.0 mm 0.41 in10.4 mm
10:00 PM 32.5°F0.3°C 30.2°F-1.0°C 85% Calm Calm -- 29.80 in1009.1 mb 0.00 in0.0 mm 0.00 in0.0 mm 0.41 in10.4 mm
10:05 PM 32.5°F0.3°C 30.2°F-1.0°C 85% 0.1 mph ENE0.2 kmh ENE 1.1 mph1.8 kmh 29.80 in1009.1 mb 0.00 in0.0 mm 0.00 in0.0 mm 0.41 in10.4 mm
10:10 PM 32.4°F0.2°C 28.4°F-2.0°C 85% 0.1 mph ENE0.2 kmh ENE 1.1 mph1.8 kmh 29.80 in1009.1 mb 0.00 in0.0 mm 0.00 in0.0 mm 0.41 in10.4 mm
10:15 PM 32.4°F0.2°C 28.4°F-2.0°C 85% 0.7 mph NNE1.1 kmh NNE 2.9 mph4.7 kmh 29.80 in1009.1 mb 0.00 in0.0 mm 0.00 in0.0 mm 0.41 in10.4 mm
10:20 PM 32.7°F0.4°C 30.2°F-1.0°C 85% 1.9 mph NNE3.1 kmh NNE 2.9 mph4.7 kmh 29.80 in1009.1 mb 0.00 in0.0 mm 0.00 in0.0 mm 0.41 in10.4 mm
10:25 PM 33.1°F0.6°C 30.2°F-1.0°C 85% 2.2 mph N3.5 kmh N 3.4 mph5.5 kmh 29.80 in1009.1 mb 0.00 in0.0 mm 0.00 in0.0 mm 0.41 in10.4 mm
10:30 PM 33.3°F0.7°C 30.2°F-1.0°C 85% 2.4 mph N3.9 kmh N 3.4 mph5.5 kmh 29.80 in1009.1 mb 0.00 in0.0 mm 0.00 in0.0 mm 0.41 in10.4 mm
10:35 PM 33.6°F0.9°C 30.2°F-1.0°C 86% 2.7 mph N4.3 kmh N 3.4 mph5.5 kmh 29.80 in1009.1 mb 0.00 in0.0 mm 0.00 in0.0 mm 0.41 in10.4 mm
10:40 PM 33.4°F0.8°C 30.2°F-1.0°C 86% 2.6 mph N4.2 kmh N 3.4 mph5.5 kmh 29.80 in1009.1 mb 0.00 in0.0 mm 0.00 in0.0 mm 0.41 in10.4 mm
10:45 PM 33.3°F0.7°C 30.2°F-1.0°C 86% 2.3 mph N3.7 kmh N 3.1 mph5.0 kmh 29.80 in1009.1 mb 0.00 in0.0 mm 0.00 in0.0 mm 0.41 in10.4 mm
10:50 PM 32.9°F0.5°C 30.2°F-1.0°C 86% 1.7 mph N2.7 kmh N 2.9 mph4.7 kmh 29.80 in1009.1 mb 0.00 in0.0 mm 0.00 in0.0 mm 0.41 in10.4 mm
10:55 PM 32.7°F0.4°C 30.2°F-1.0°C 86% 1.0 mph N1.6 kmh N 2.7 mph4.3 kmh 29.80 in1009.1 mb 0.00 in0.0 mm 0.00 in0.0 mm 0.41 in10.4 mm
11:00 PM 32.7°F0.4°C 30.2°F-1.0°C 86% 0.7 mph NNE1.1 kmh NNE 2.7 mph4.3 kmh 29.80 in1009.1 mb 0.00 in0.0 mm 0.00 in0.0 mm 0.41 in10.4 mm
11:05 PM 32.9°F0.5°C 30.2°F-1.0°C 86% 0.3 mph N0.5 kmh N 1.6 mph2.6 kmh 29.80 in1009.1 mb 0.00 in0.0 mm 0.00 in0.0 mm 0.41 in10.4 mm
11:10 PM 33.1°F0.6°C 30.2°F-1.0°C 86% 0.1 mph NNE0.2 kmh NNE 1.1 mph1.8 kmh 29.80 in1009.1 mb 0.00 in0.0 mm 0.00 in0.0 mm 0.41 in10.4 mm
11:15 PM 33.3°F0.7°C 30.2°F-1.0°C 86% Calm Calm -- 29.80 in1009.1 mb 0.00 in0.0 mm 0.00 in0.0 mm 0.41 in10.4 mm
11:20 PM 33.3°F0.7°C 30.2°F-1.0°C 86% Calm Calm -- 29.80 in1009.1 mb 0.00 in0.0 mm 0.00 in0.0 mm 0.41 in10.4 mm
11:25 PM 33.1°F0.6°C 30.2°F-1.0°C 86% 0.1 mph N0.2 kmh N 1.3 mph2.1 kmh 29.80 in1009.1 mb 0.00 in0.0 mm 0.00 in0.0 mm 0.41 in10.4 mm
11:30 PM 32.9°F0.5°C 30.2°F-1.0°C 86% 0.1 mph N0.2 kmh N 1.3 mph2.1 kmh 29.80 in1009.1 mb 0.00 in0.0 mm 0.00 in0.0 mm 0.41 in10.4 mm
11:35 PM 32.9°F0.5°C 30.2°F-1.0°C 86% 0.3 mph NNE0.5 kmh NNE 2.2 mph3.5 kmh 29.80 in1009.1 mb 0.00 in0.0 mm 0.00 in0.0 mm 0.41 in10.4 mm
11:40 PM 32.9°F0.5°C 30.2°F-1.0°C 86% 1.0 mph N1.6 kmh N 2.7 mph4.3 kmh 29.80 in1009.1 mb 0.00 in0.0 mm 0.00 in0.0 mm 0.41 in10.4 mm
11:45 PM 32.5°F0.3°C 30.2°F-1.0°C 86% 1.2 mph N1.9 kmh N 3.1 mph5.0 kmh 29.80 in1009.1 mb 0.00 in0.0 mm 0.00 in0.0 mm 0.41 in10.4 mm
11:50 PM 32.7°F0.4°C 30.2°F-1.0°C 86% 1.0 mph N1.6 kmh N 3.1 mph5.0 kmh 29.80 in1009.1 mb 0.00 in0.0 mm 0.00 in0.0 mm 0.41 in10.4 mm
11:55 PM 32.5°F0.3°C 30.2°F-1.0°C 86% 1.1 mph N1.8 kmh N 3.1 mph5.0 kmh 29.80 in1009.1 mb 0.00 in0.0 mm 0.00 in0.0 mm 0.41 in10.4 mm